Palmer Municipal Airport
PAAQ : now visible

Aeroporto :











RITROVATECI SU...

 
LOGIN :

Iscrizione | Disclaimer

   EN    FR    IT 

 









Sommario :    VFR   VFR Marginale   IFR   IFR Intensivo   IFR Molto Intensivo
Visibilità : 
Base nubi : 
>= 8 km
>= 3000ft
5 / 8 km
1000 / 3000 ft
1500m / 5 km
500 / 1000 ft
800 / 1500m
200 / 500 ft
< 800m
< 200 ft
Simboli :   Temporali  Nebbia  Neve Forte  Precipitazioni Forti  Vento > 20 kt






- Altitudine del aeroporto : 242 ft
- Codice IATA : PAQ


PAAQ - Palmer Municipal

ULTIMO METAR :
  • 191453Z AUTO 35005KT 9SM -SN OVC016 01/M01 A2947 RMK AO2 SLP983 P0001 60008 T00111006 53052 TSNO

METARs OBSOLETI :
  • 191437Z AUTO 36006KT 7SM -SN OVC015 01/M01 A2945 RMK AO2 P0001 T00111006 TSNO
  • 191353Z AUTO 32005KT 4SM -SN BR SCT007 OVC013 01/00 A2941 RMK AO2 SLP964 P0002 T00110000 TSNO
  • 191338Z AUTO 34004KT 5SM -SN BR BKN007 OVC012 01/00 A2940 RMK AO2 P0002 T00110000 TSNO
  • 191253Z AUTO 36004KT 2 1/2SM -SN BR OVC008 01/00 A2936 RMK AO2 SLP947 P0005 T00060000 TSNO
  • 191201Z AUTO 00000KT 1 1/2SM -SN BR OVC007 01/00 A2932 RMK AO2 P0001 T00060000 TSNO

TAF PAAQ
Valido dal 19 a 12 ore il 20 a 12 ore UTC


191136Z 1912/2012 11005KT 6SM -RASN SCT005 OVC015
TEMPO 1912/1916 2SM -SN BR OVC005
FM191900 VRB05KT P6SM SCT015 OVC025
FM200000 01006KT P6SM SCT025 BKN050
FIR PAZA / America del Nord



MetMap, La meteo Aeronautica in un colpo d'occhio ! - Copyright ORBIFLY Dicembre 2007 - Disclaimer

ORBIFLY MET'MAP TEAM :

Programmazione e sviluppo : Alexandra Zaïnal
Concezione : Baudouin d'Aumeries
Aiuto per la programmazione : Marc-Olivier Méhu
Supporto tecnico e logistico : Manuel Goepfert
Aiuto per la traduzione : Arnaldo La Scala

Contatto : metmap@orbifly.com




FONTI E CREDITI :

   NOAA       Earth
Advisory